createdAt,value
2023-09-28T00:01:50.571Z,100832.59
2023-09-28T00:04:53.121Z,100822.06
2023-09-28T00:07:56.658Z,100824.84
2023-09-28T00:11:02.343Z,100824.09
2023-09-28T00:14:05.652Z,100829.16
2023-09-28T00:17:10.263Z,100816.41
2023-09-28T00:20:19.572Z,100822.34
2023-09-28T00:23:22.984Z,100813.41
2023-09-28T00:26:25.162Z,100814.50
2023-09-28T00:29:27.932Z,100819.69
2023-09-28T00:32:30.153Z,100816.91
2023-09-28T00:35:32.610Z,100816.16
2023-09-28T00:38:34.828Z,100820.16
2023-09-28T00:41:37.299Z,100820.91
2023-09-28T00:44:39.365Z,100827.22
2023-09-28T00:47:42.133Z,100824.84
2023-09-28T00:50:44.503Z,100819.94
2023-09-28T00:53:46.931Z,100827.84
2023-09-28T00:56:49.861Z,100814.34
2023-09-28T00:59:52.574Z,100827.75
2023-09-28T01:02:57.169Z,100830.94
2023-09-28T01:05:59.848Z,100829.66
2023-09-28T01:09:02.758Z,100822.06
2023-09-28T01:12:08.168Z,100818.06
2023-09-28T01:15:11.478Z,100821.19
2023-09-28T01:18:16.729Z,100821.09
2023-09-28T01:21:20.135Z,100819.00
2023-09-28T01:24:23.202Z,100824.47
2023-09-28T01:27:25.896Z,100822.44
2023-09-28T01:30:33.749Z,100818.50
2023-09-28T01:33:35.948Z,100821.59
2023-09-28T01:36:38.512Z,100821.59
2023-09-28T01:39:40.686Z,100819.13
2023-09-28T01:42:43.118Z,100820.56
2023-09-28T01:45:45.590Z,100823.78
2023-09-28T01:48:48.095Z,100835.62
2023-09-28T01:51:50.251Z,100834.75
2023-09-28T01:54:52.644Z,100834.38
2023-09-28T01:57:54.776Z,100837.94
2023-09-28T02:00:58.002Z,100834.25
2023-09-28T02:04:00.594Z,100843.78
2023-09-28T02:07:02.736Z,100839.75
2023-09-28T02:10:06.014Z,100832.53
2023-09-28T02:13:08.115Z,100842.44
2023-09-28T02:16:12.746Z,100840.81
2023-09-28T02:19:17.517Z,100832.91
2023-09-28T02:22:20.891Z,100834.28
2023-09-28T02:25:25.916Z,100836.66
2023-09-28T02:28:28.417Z,100841.03
2023-09-28T02:31:32.457Z,100845.38
2023-09-28T02:34:34.995Z,100839.00
2023-09-28T02:37:38.384Z,100846.19
2023-09-28T02:40:40.886Z,100844.84
2023-09-28T02:43:43.306Z,100848.75
2023-09-28T02:46:45.777Z,100847.59
2023-09-28T02:49:48.648Z,100844.44
2023-09-28T02:52:53.526Z,100837.25
2023-09-28T02:55:55.948Z,100841.94
2023-09-28T02:58:58.430Z,100839.47
2023-09-28T03:02:00.673Z,100843.41
2023-09-28T03:05:03.757Z,100833.72
2023-09-28T03:08:10.460Z,100830.94
2023-09-28T03:11:14.162Z,100838.88
2023-09-28T03:14:16.483Z,100835.97
2023-09-28T03:17:18.987Z,100837.50
2023-09-28T03:20:22.999Z,100844.66
2023-09-28T03:23:25.765Z,100849.41
2023-09-28T03:26:31.648Z,100849.41
2023-09-28T03:29:34.199Z,100854.47
2023-09-28T03:32:36.627Z,100856.53
2023-09-28T03:35:39.087Z,100857.63
2023-09-28T03:38:41.235Z,100855.66
2023-09-28T03:41:43.591Z,100865.69
2023-09-28T03:44:45.732Z,100870.81
2023-09-28T03:47:49.468Z,100866.12
2023-09-28T03:50:52.410Z,100873.91
2023-09-28T03:53:55.080Z,100874.91
2023-09-28T03:56:57.315Z,100869.69
2023-09-28T03:59:59.775Z,100868.72
2023-09-28T04:03:02.003Z,100863.87
2023-09-28T04:06:04.535Z,100867.03
2023-09-28T04:09:08.887Z,100873.38
2023-09-28T04:12:13.402Z,100878.16
2023-09-28T04:15:17.368Z,100871.78
2023-09-28T04:18:19.886Z,100870.25
2023-09-28T04:21:22.117Z,100877.34
2023-09-28T04:24:25.301Z,100878.88
2023-09-28T04:27:27.513Z,100883.63
2023-09-28T04:30:30.105Z,100883.91
2023-09-28T04:33:32.738Z,100885.06
2023-09-28T04:36:35.451Z,100880.41
2023-09-28T04:39:37.737Z,100883.53
2023-09-28T04:42:40.615Z,100880.25
2023-09-28T04:45:42.762Z,100885.72
2023-09-28T04:48:45.174Z,100887.34
2023-09-28T04:51:47.365Z,100892.56
2023-09-28T04:54:51.085Z,100888.06
2023-09-28T04:57:54.438Z,100892.38
2023-09-28T05:00:59.331Z,100889.69
2023-09-28T05:04:01.709Z,100899.56
2023-09-28T05:07:05.411Z,100898.56
2023-09-28T05:10:08.588Z,100892.72
2023-09-28T05:13:13.672Z,100897.13
2023-09-28T05:16:15.932Z,100897.97
2023-09-28T05:19:19.449Z,100899.59
2023-09-28T05:22:22.150Z,100903.62
2023-09-28T05:25:24.597Z,100909.28
2023-09-28T05:28:26.978Z,100910.88
2023-09-28T05:31:29.580Z,100911.25
2023-09-28T05:34:32.450Z,100922.91
2023-09-28T05:37:34.934Z,100918.94
2023-09-28T05:40:37.363Z,100913.59
2023-09-28T05:43:39.920Z,100916.81
2023-09-28T05:46:42.832Z,100905.81
2023-09-28T05:49:45.588Z,100912.72
2023-09-28T05:52:49.599Z,100908.47
2023-09-28T05:55:52.747Z,100914.19
2023-09-28T05:58:55.239Z,100908.78
2023-09-28T06:01:58.698Z,100919.63
2023-09-28T06:05:01.204Z,100930.03
2023-09-28T06:08:07.433Z,100931.38
2023-09-28T06:11:12.877Z,100935.47
2023-09-28T06:14:16.797Z,100935.59
2023-09-28T06:17:19.641Z,100936.62
2023-09-28T06:20:22.159Z,100936.00
2023-09-28T06:23:24.632Z,100940.22
2023-09-28T06:26:41.159Z,100932.78
2023-09-28T06:29:45.818Z,100929.34
2023-09-28T06:32:48.222Z,100931.87
2023-09-28T06:35:50.666Z,100938.37
2023-09-28T06:38:53.175Z,100933.72
2023-09-28T06:41:56.963Z,100941.78
2023-09-28T06:45:05.609Z,100934.41
2023-09-28T06:48:19.472Z,100942.69
2023-09-28T06:51:23.478Z,100941.78
2023-09-28T06:54:26.341Z,100936.41
2023-09-28T06:57:29.005Z,100943.00
2023-09-28T07:00:32.195Z,100951.56
2023-09-28T07:03:34.422Z,100946.53
2023-09-28T07:06:36.866Z,100948.34
2023-09-28T07:09:51.023Z,100955.09
2023-09-28T07:12:57.595Z,100955.78
2023-09-28T07:15:59.769Z,100961.50
2023-09-28T07:19:05.269Z,100970.81
2023-09-28T07:22:07.506Z,100972.19
2023-09-28T07:25:10.512Z,100974.78
2023-09-28T07:28:13.532Z,100975.50
2023-09-28T07:31:16.550Z,100975.31
2023-09-28T07:34:18.773Z,100974.75
2023-09-28T07:37:22.273Z,100967.28
2023-09-28T07:40:44.296Z,100975.91
2023-09-28T07:43:55.412Z,100976.88
2023-09-28T07:46:57.669Z,100983.03
2023-09-28T07:50:00.234Z,100983.88
2023-09-28T07:53:02.567Z,100980.88
2023-09-28T07:56:05.188Z,100982.19
2023-09-28T07:59:07.421Z,100987.84
2023-09-28T08:02:12.827Z,100985.81
2023-09-28T08:05:15.477Z,100988.53
2023-09-28T08:08:18.995Z,100988.69
2023-09-28T08:11:21.784Z,100994.28
2023-09-28T08:14:24.034Z,100990.63
2023-09-28T08:17:26.676Z,100983.13
2023-09-28T08:20:31.816Z,100991.41
2023-09-28T08:23:34.524Z,100991.59
2023-09-28T08:26:37.283Z,100988.63
2023-09-28T08:29:40.981Z,100990.84
2023-09-28T08:32:44.984Z,100986.22
2023-09-28T08:35:48.140Z,100984.91
2023-09-28T08:38:50.359Z,100984.62
2023-09-28T08:41:55.857Z,100979.37
2023-09-28T08:45:05.650Z,100975.69
2023-09-28T08:48:10.911Z,100971.25
2023-09-28T08:51:13.464Z,100976.19
2023-09-28T08:54:17.104Z,100975.91
2023-09-28T08:57:19.478Z,100968.50
2023-09-28T09:00:24.285Z,100967.84
2023-09-28T09:03:28.464Z,100972.16
2023-09-28T09:06:32.614Z,100981.28
2023-09-28T09:09:40.992Z,100963.19
2023-09-28T09:12:43.464Z,100968.66
2023-09-28T09:15:48.951Z,100966.84
2023-09-28T09:18:52.086Z,100975.63
2023-09-28T09:21:55.190Z,100974.16
2023-09-28T09:25:02.182Z,100959.16
2023-09-28T09:28:05.717Z,100961.06
2023-09-28T09:31:08.421Z,100964.09
2023-09-28T09:34:20.141Z,100961.81
2023-09-28T09:37:22.690Z,100958.50
2023-09-28T09:40:27.030Z,100958.75
2023-09-28T09:43:36.992Z,100950.47
2023-09-28T09:46:40.096Z,100946.78
2023-09-28T09:49:42.887Z,100954.47
2023-09-28T09:52:45.635Z,100950.41
2023-09-28T09:58:57.742Z,100954.19
2023-09-28T10:02:00.577Z,100944.88
2023-09-28T10:05:05.626Z,100952.31
2023-09-28T10:08:09.011Z,100937.72
2023-09-28T10:11:11.504Z,100947.28
2023-09-28T10:14:16.205Z,100933.62
2023-09-28T10:17:20.237Z,100936.66
2023-09-28T10:20:23.675Z,100935.72
2023-09-28T10:23:27.443Z,100930.06
2023-09-28T10:26:32.576Z,100931.41
2023-09-28T10:29:35.335Z,100926.81
2023-09-28T10:32:41.836Z,100926.72
2023-09-28T10:35:45.992Z,100920.22
2023-09-28T10:39:06.456Z,100931.16
2023-09-28T10:42:12.028Z,100923.62
2023-09-28T10:45:14.160Z,100927.78
2023-09-28T10:48:16.838Z,100928.44
2023-09-28T10:51:22.124Z,100918.91
2023-09-28T10:54:28.340Z,100913.28
2023-09-28T10:57:33.979Z,100894.16
2023-09-28T11:00:38.100Z,100909.16
2023-09-28T11:03:41.097Z,100910.00
2023-09-28T11:06:44.982Z,100916.34
2023-09-28T11:09:47.246Z,100909.94
2023-09-28T11:12:49.743Z,100903.84
2023-09-28T11:15:51.966Z,100900.81
2023-09-28T11:18:55.867Z,100895.47
2023-09-28T11:21:58.970Z,100890.66
2023-09-28T11:25:03.980Z,100890.97
2023-09-28T11:28:09.241Z,100883.59
2023-09-28T11:31:16.685Z,100890.00
2023-09-28T11:34:31.885Z,100883.28
2023-09-28T11:37:35.710Z,100889.19
2023-09-28T11:40:41.773Z,100881.56
2023-09-28T11:43:46.146Z,100878.47
2023-09-28T11:46:51.857Z,100886.59
2023-09-28T11:49:55.829Z,100888.75
2023-09-28T11:52:58.166Z,100874.81
2023-09-28T11:56:04.695Z,100866.97
2023-09-28T11:59:10.715Z,100864.00
2023-09-28T12:02:13.358Z,100860.53
2023-09-28T12:05:16.723Z,100856.63
2023-09-28T12:08:19.086Z,100859.44
2023-09-28T12:11:21.519Z,100855.13
2023-09-28T12:14:27.293Z,100856.41
2023-09-28T12:17:30.133Z,100854.28
2023-09-28T12:20:33.368Z,100853.34
2023-09-28T12:23:36.570Z,100845.78
2023-09-28T12:26:38.818Z,100850.25
2023-09-28T12:29:41.439Z,100855.06
2023-09-28T12:32:46.080Z,100847.69
2023-09-28T12:35:50.684Z,100840.53
2023-09-28T12:38:53.260Z,100840.34
2023-09-28T12:42:00.211Z,100850.63
2023-09-28T12:45:11.476Z,100839.84
2023-09-28T12:48:20.020Z,100841.88
2023-09-28T12:51:22.472Z,100839.97
2023-09-28T12:54:26.153Z,100838.72
2023-09-28T12:57:30.343Z,100843.94
2023-09-28T13:00:34.563Z,100836.66
2023-09-28T13:03:40.777Z,100823.13
2023-09-28T13:06:46.943Z,100822.22
2023-09-28T13:09:51.688Z,100826.22
2023-09-28T13:12:55.380Z,100822.81
2023-09-28T13:15:57.576Z,100818.19
2023-09-28T13:19:00.766Z,100817.59
2023-09-28T13:22:26.675Z,100813.06
2023-09-28T13:25:30.866Z,100809.53
2023-09-28T13:28:33.072Z,100806.63
2023-09-28T13:31:37.628Z,100810.41
2023-09-28T13:34:41.260Z,100808.06
2023-09-28T13:37:44.288Z,100803.09
2023-09-28T13:40:54.257Z,100803.91
2023-09-28T13:44:04.908Z,100794.44
2023-09-28T13:47:08.255Z,100797.88
2023-09-28T13:50:11.809Z,100789.47
2023-09-28T13:53:14.258Z,100793.69
2023-09-28T13:56:17.124Z,100786.59
2023-09-28T13:59:20.523Z,100792.00
2023-09-28T14:02:27.775Z,100790.53
2023-09-28T14:05:31.283Z,100789.84
2023-09-28T14:08:35.088Z,100789.28
2023-09-28T14:11:41.906Z,100790.81
2023-09-28T14:14:45.061Z,100780.34
2023-09-28T14:17:49.187Z,100776.97
2023-09-28T14:20:51.850Z,100774.12
2023-09-28T14:23:54.541Z,100768.53
2023-09-28T14:26:57.013Z,100762.53
2023-09-28T14:29:59.615Z,100767.78
2023-09-28T14:33:02.522Z,100759.25
2023-09-28T14:36:07.080Z,100758.81
2023-09-28T14:39:11.460Z,100757.03
2023-09-28T14:42:14.011Z,100758.56
2023-09-28T14:45:28.211Z,100757.22
2023-09-28T14:48:30.892Z,100757.22
2023-09-28T14:51:33.090Z,100764.75
2023-09-28T14:54:36.235Z,100760.56
2023-09-28T14:57:38.469Z,100758.84
2023-09-28T15:00:41.004Z,100753.34
2023-09-28T15:03:43.727Z,100767.59
2023-09-28T15:06:46.269Z,100763.16
2023-09-28T15:09:49.652Z,100764.47
2023-09-28T15:12:52.181Z,100761.06
2023-09-28T15:15:54.970Z,100754.53
2023-09-28T15:18:57.489Z,100747.41
2023-09-28T15:22:00.028Z,100745.56
2023-09-28T15:25:05.335Z,100757.41
2023-09-28T15:28:09.734Z,100755.50
2023-09-28T15:31:12.537Z,100750.28
2023-09-28T15:34:19.302Z,100757.66
2023-09-28T15:37:25.200Z,100760.62
2023-09-28T15:40:28.443Z,100763.59
2023-09-28T15:43:34.841Z,100767.78
2023-09-28T15:46:39.319Z,100766.25
2023-09-28T15:49:44.607Z,100767.94
2023-09-28T15:52:46.752Z,100771.31
2023-09-28T15:55:49.393Z,100769.47
2023-09-28T15:58:51.714Z,100769.97
2023-09-28T16:01:58.295Z,100771.31
2023-09-28T16:05:01.139Z,100770.25
2023-09-28T16:08:08.385Z,100771.22
2023-09-28T16:11:11.007Z,100774.56
2023-09-28T16:14:13.821Z,100773.06
2023-09-28T16:17:24.246Z,100783.66
2023-09-28T16:20:26.721Z,100772.53
2023-09-28T16:23:29.306Z,100779.09
2023-09-28T16:26:31.822Z,100777.59
2023-09-28T16:29:34.487Z,100774.44
2023-09-28T16:32:36.766Z,100773.38
2023-09-28T16:35:39.304Z,100782.34
2023-09-28T16:38:41.596Z,100778.84
2023-09-28T16:41:44.715Z,100773.72
2023-09-28T16:44:46.948Z,100775.81
2023-09-28T16:47:49.579Z,100776.75
2023-09-28T16:50:51.804Z,100780.84
2023-09-28T16:53:54.945Z,100780.53
2023-09-28T16:56:57.057Z,100783.41
2023-09-28T16:59:59.505Z,100785.06
2023-09-28T17:03:01.876Z,100779.47
2023-09-28T17:06:04.477Z,100786.00
2023-09-28T17:09:06.667Z,100786.03
2023-09-28T17:12:09.228Z,100787.28
2023-09-28T17:15:11.435Z,100783.72
2023-09-28T17:18:20.683Z,100791.81
2023-09-28T17:21:23.581Z,100799.09
2023-09-28T17:24:26.366Z,100783.09
2023-09-28T17:27:28.783Z,100791.94
2023-09-28T17:30:31.445Z,100797.62
2023-09-28T17:33:33.996Z,100803.66
2023-09-28T17:36:36.558Z,100798.47
2023-09-28T17:39:38.826Z,100796.06
2023-09-28T17:42:41.358Z,100798.94
2023-09-28T17:45:45.201Z,100800.19
2023-09-28T17:48:50.192Z,100797.00
2023-09-28T17:51:52.355Z,100804.25
2023-09-28T17:54:57.121Z,100801.84
2023-09-28T17:57:59.348Z,100797.47
2023-09-28T18:01:04.301Z,100804.31
2023-09-28T18:04:06.923Z,100803.53
2023-09-28T18:07:10.030Z,100803.94
2023-09-28T18:10:12.558Z,100816.37
2023-09-28T18:13:14.728Z,100812.00
2023-09-28T18:16:17.718Z,100812.00
2023-09-28T18:19:19.928Z,100814.84
2023-09-28T18:22:22.705Z,100823.66
2023-09-28T18:25:26.009Z,100834.88
2023-09-28T18:28:31.662Z,100832.09
2023-09-28T18:31:33.963Z,100837.31
2023-09-28T18:34:36.706Z,100836.50
2023-09-28T18:37:38.929Z,100835.72
2023-09-28T18:40:42.489Z,100842.94
2023-09-28T18:43:45.123Z,100846.94
2023-09-28T18:46:48.091Z,100848.94
2023-09-28T18:49:50.293Z,100854.91
2023-09-28T18:52:52.837Z,100857.31
2023-09-28T18:55:58.058Z,100865.31
2023-09-28T18:59:00.438Z,100853.69
2023-09-28T19:02:04.028Z,100853.25
2023-09-28T19:05:07.592Z,100846.84
2023-09-28T19:08:10.003Z,100853.25
2023-09-28T19:11:12.516Z,100854.81
2023-09-28T19:14:18.058Z,100859.63
2023-09-28T19:17:22.809Z,100864.81
2023-09-28T19:20:26.890Z,100866.81
2023-09-28T19:23:30.129Z,100869.56
2023-09-28T19:26:35.101Z,100877.56
2023-09-28T19:29:39.067Z,100873.09
2023-09-28T19:32:41.369Z,100877.87
2023-09-28T19:35:44.401Z,100875.88
2023-09-28T19:38:49.840Z,100871.06
2023-09-28T19:41:52.585Z,100876.25
2023-09-28T19:44:54.818Z,100869.44
2023-09-28T19:47:57.535Z,100867.34
2023-09-28T19:50:59.824Z,100860.94
2023-09-28T19:54:02.412Z,100866.97
2023-09-28T19:57:05.840Z,100878.53
2023-09-28T20:00:11.513Z,100876.91
2023-09-28T20:03:14.182Z,100875.31
2023-09-28T20:06:18.630Z,100868.91
2023-09-28T20:09:22.708Z,100879.69
2023-09-28T20:12:32.951Z,100879.25
2023-09-28T20:15:37.958Z,100877.25
2023-09-28T20:18:47.587Z,100880.41
2023-09-28T20:21:59.667Z,100883.19
2023-09-28T20:25:01.877Z,100893.56
2023-09-28T20:28:05.131Z,100881.91
2023-09-28T20:31:07.460Z,100885.50
2023-09-28T20:34:09.917Z,100886.25
2023-09-28T20:37:12.129Z,100884.69
2023-09-28T20:40:14.727Z,100886.59
2023-09-28T20:43:18.142Z,100883.75
2023-09-28T20:46:22.276Z,100886.91
2023-09-28T20:49:24.750Z,100888.50
2023-09-28T20:52:27.388Z,100883.69
2023-09-28T20:55:32.899Z,100882.41
2023-09-28T20:58:35.404Z,100890.00
2023-09-28T21:01:41.583Z,100891.94
2023-09-28T21:04:45.949Z,100896.66
2023-09-28T21:07:50.446Z,100897.84
2023-09-28T21:10:52.886Z,100889.81
2023-09-28T21:13:57.951Z,100891.00
2023-09-28T21:17:00.424Z,100890.56
2023-09-28T21:20:05.533Z,100883.31
2023-09-28T21:23:08.214Z,100886.47
2023-09-28T21:26:10.441Z,100886.38
2023-09-28T21:29:14.740Z,100899.84
2023-09-28T21:32:17.333Z,100895.81
2023-09-28T21:35:19.749Z,100897.34
2023-09-28T21:38:28.527Z,100898.09
2023-09-28T21:41:33.230Z,100894.06
2023-09-28T21:44:37.543Z,100890.81
2023-09-28T21:47:40.184Z,100886.00
2023-09-28T21:50:44.563Z,100889.91
2023-09-28T21:53:50.912Z,100892.28
2023-09-28T21:56:54.952Z,100890.59
2023-09-28T21:59:57.399Z,100894.56
2023-09-28T22:03:00.727Z,100895.38
2023-09-28T22:06:03.477Z,100889.75
2023-09-28T22:09:06.553Z,100899.19
2023-09-28T22:12:09.038Z,100897.22
2023-09-28T22:15:12.878Z,100899.53
2023-09-28T22:18:18.417Z,100901.50
2023-09-28T22:21:23.150Z,100900.63
2023-09-28T22:24:25.963Z,100900.22
2023-09-28T22:27:32.053Z,100907.72
2023-09-28T22:30:34.594Z,100898.16
2023-09-28T22:33:37.032Z,100906.47
2023-09-28T22:36:44.791Z,100904.84
2023-09-28T22:39:47.049Z,100906.00
2023-09-28T22:42:49.480Z,100909.13
2023-09-28T22:45:51.722Z,100915.13
2023-09-28T22:48:58.083Z,100908.59
2023-09-28T22:52:02.427Z,100905.34
2023-09-28T22:55:05.919Z,100905.66
2023-09-28T22:58:09.161Z,100917.56
2023-09-28T23:01:11.691Z,100912.00
2023-09-28T23:04:17.951Z,100918.66
2023-09-28T23:07:21.215Z,100920.69
2023-09-28T23:10:23.414Z,100921.37
2023-09-28T23:13:25.881Z,100916.59
2023-09-28T23:16:28.379Z,100917.34
2023-09-28T23:19:34.987Z,100921.19
2023-09-28T23:22:43.143Z,100929.53
2023-09-28T23:25:45.619Z,100923.56
2023-09-28T23:28:48.714Z,100924.31
2023-09-28T23:32:11.145Z,100929.03
2023-09-28T23:35:17.679Z,100922.66
2023-09-28T23:38:21.126Z,100927.00
2023-09-28T23:41:23.562Z,100930.38
2023-09-28T23:44:26.901Z,100932.44
2023-09-28T23:47:29.193Z,100923.62
2023-09-28T23:50:34.596Z,100929.94
2023-09-28T23:53:36.896Z,100921.50
2023-09-28T23:56:42.743Z,100926.16
2023-09-28T23:59:45.052Z,100919.44
